Time,TemperatureF,DewpointF,PressureIn,WindDirection,WindDirectionDegrees,WindSpeedMPH,WindSpeedGustMPH,Humidity,HourlyPrecipIn,Conditions,Clouds,dailyrainin,SolarRadiationWatts/m^2,SoftwareType,DateUTC
2013-02-15 00:00:00,62.7,61.0,29.99,WNW,291,3.0,5.0,93,0.00,,,0.00,0,weatherlink.com 1.10,2013-02-15 05:00:00,
2013-02-15 00:15:00,63.2,61.0,29.98,SW,232,5.0,9.0,93,0.00,,,0.00,0,weatherlink.com 1.10,2013-02-15 05:15:00,
2013-02-15 00:30:00,63.4,61.0,29.99,West,274,3.0,9.0,92,0.00,,,0.00,0,weatherlink.com 1.10,2013-02-15 05:30:00,
2013-02-15 00:46:00,63.5,61.0,29.97,West,265,5.0,12.0,91,0.00,,,0.00,0,weatherlink.com 1.10,2013-02-15 05:46:00,
2013-02-15 01:00:00,64.1,61.0,29.97,WSW,251,6.0,14.0,90,0.00,,,0.00,0,weatherlink.com 1.10,2013-02-15 06:00:00,
2013-02-15 01:16:00,64.7,62.0,29.96,SSE,156,9.0,15.0,89,0.00,,,0.00,0,weatherlink.com 1.10,2013-02-15 06:16:00,
2013-02-15 01:30:00,65.2,62.0,29.95,WSW,257,4.0,9.0,88,0.00,,,0.00,0,weatherlink.com 1.10,2013-02-15 06:30:00,
2013-02-15 01:45:00,65.4,62.0,29.96,SW,219,6.0,8.0,88,0.00,,,0.00,0,weatherlink.com 1.10,2013-02-15 06:45:00,
2013-02-15 02:00:00,65.4,62.0,29.96,SE,146,9.0,11.0,87,0.01,,,0.01,0,weatherlink.com 1.10,2013-02-15 07:00:00,
2013-02-15 02:15:00,65.3,62.0,29.96,SSE,165,7.0,9.0,88,0.02,,,0.02,0,weatherlink.com 1.10,2013-02-15 07:15:00,
2013-02-15 02:30:00,65.4,61.4,29.95,South,180,6.0,11.0,87,0.02,,---,0.02,0.00,VWS V14.01,2013-02-15 07:30:00,
2013-02-15 02:31:00,65.5,62.0,29.95,East,90,8.0,9.0,87,0.02,,,0.02,0,weatherlink.com 1.10,2013-02-15 07:31:00,
2013-02-15 02:46:00,65.8,61.0,29.97,SE,128,6.0,10.0,85,0.02,,,0.02,0,weatherlink.com 1.10,2013-02-15 07:46:00,
2013-02-15 03:00:00,66.0,61.7,29.95,SE,135,5.0,11.0,86,0.03,,---,0.03,0.00,VWS V14.01,2013-02-15 08:00:00,
2013-02-15 03:01:00,66.0,62.0,29.96,SSE,151,4.0,7.0,86,0.02,,,0.03,0,weatherlink.com 1.10,2013-02-15 08:01:00,
2013-02-15 03:16:00,66.2,62.0,29.97,SE,127,4.0,9.0,87,0.01,,,0.03,0,weatherlink.com 1.10,2013-02-15 08:16:00,
2013-02-15 03:30:00,66.4,63.1,29.97,SE,135,3.0,9.0,89,0.03,,---,0.03,0.00,VWS V14.01,2013-02-15 08:30:00,
2013-02-15 03:31:00,66.4,63.0,29.97,South,191,2.0,5.0,89,0.01,,,0.03,0,weatherlink.com 1.10,2013-02-15 08:31:00,
2013-02-15 03:46:00,65.9,63.0,29.97,WNW,300,2.0,3.0,90,0.01,,,0.03,0,weatherlink.com 1.10,2013-02-15 08:46:00,
2013-02-15 04:00:00,64.9,62.2,29.97,North,0,1.0,5.0,91,0.01,,---,0.03,0.00,VWS V14.01,2013-02-15 09:00:00,
2013-02-15 04:01:00,64.8,62.0,29.96,NW,313,1.0,3.0,91,0.00,,,0.03,0,weatherlink.com 1.10,2013-02-15 09:01:00,
2013-02-15 04:16:00,64.3,62.0,29.97,SSW,213,1.0,3.0,93,0.00,,,0.03,0,weatherlink.com 1.10,2013-02-15 09:16:00,
2013-02-15 04:30:00,63.7,61.6,29.96,NW,315,1.0,5.0,93,0.00,,---,0.03,0.00,VWS V14.01,2013-02-15 09:30:00,
2013-02-15 04:31:00,63.6,62.0,29.96,NW,304,2.0,5.0,93,0.00,,,0.03,0,weatherlink.com 1.10,2013-02-15 09:31:00,
2013-02-15 04:46:00,63.1,61.0,29.97,NNW,327,3.0,4.0,94,0.01,,,0.04,0,weatherlink.com 1.10,2013-02-15 09:46:00,
2013-02-15 05:00:00,62.7,61.0,29.97,NW,315,1.0,4.0,94,0.01,,---,0.04,0.00,VWS V14.01,2013-02-15 10:00:00,
2013-02-15 05:01:00,62.7,61.0,29.98,NNW,348,1.0,3.0,94,0.01,,,0.04,0,weatherlink.com 1.10,2013-02-15 10:01:00,
2013-02-15 05:16:00,62.4,61.0,30.00,WNW,294,1.0,8.0,95,0.01,,,0.04,0,weatherlink.com 1.10,2013-02-15 10:16:00,
2013-02-15 05:30:00,62.2,60.8,29.99,NNW,338,2.0,8.0,95,0.01,,---,0.04,0.00,VWS V14.01,2013-02-15 10:30:00,
2013-02-15 05:31:00,62.1,61.0,30.00,NNE,23,3.0,7.0,95,0.01,,,0.04,0,weatherlink.com 1.10,2013-02-15 10:31:00,
2013-02-15 05:46:00,61.6,60.0,30.00,NE,40,2.0,6.0,95,0.00,,,0.04,0,weatherlink.com 1.10,2013-02-15 10:46:00,
2013-02-15 06:00:00,61.4,60.0,30.00,North,0,3.0,6.0,95,0.01,,---,0.04,0.00,VWS V14.01,2013-02-15 11:00:00,
2013-02-15 06:01:00,61.4,60.0,30.00,NW,316,2.0,6.0,95,0.00,,,0.04,0,weatherlink.com 1.10,2013-02-15 11:01:00,
2013-02-15 06:16:00,61.2,60.0,30.00,NNE,30,3.0,6.0,96,0.00,,,0.04,0,weatherlink.com 1.10,2013-02-15 11:16:00,
2013-02-15 06:30:00,61.3,60.2,30.00,NNW,338,2.0,6.0,96,0.00,,---,0.04,0.00,VWS V14.01,2013-02-15 11:30:00,
2013-02-15 06:31:00,61.3,60.0,29.99,NE,40,1.0,3.0,96,0.00,,,0.04,0,weatherlink.com 1.10,2013-02-15 11:31:00,
2013-02-15 06:46:00,61.3,60.0,29.99,NW,309,3.0,4.0,96,0.00,,,0.04,0,weatherlink.com 1.10,2013-02-15 11:46:00,
2013-02-15 07:00:00,61.4,60.2,30.00,NE,45,2.0,5.0,96,0.00,,---,0.04,0.00,VWS V14.01,2013-02-15 12:00:00,
2013-02-15 07:01:00,61.4,60.0,29.99,West,269,2.0,5.0,96,0.00,,,0.04,0,weatherlink.com 1.10,2013-02-15 12:01:00,
2013-02-15 07:16:00,61.5,60.0,29.99,NW,315,1.0,3.0,96,0.00,,,0.04,0,weatherlink.com 1.10,2013-02-15 12:16:00,
2013-02-15 07:30:00,61.7,60.5,30.00,NNW,338,2.0,4.0,96,0.00,,---,0.04,0.00,VWS V14.01,2013-02-15 12:30:00,
2013-02-15 07:31:00,61.7,61.0,30.00,NW,325,3.0,4.0,96,0.00,,,0.04,7,weatherlink.com 1.10,2013-02-15 12:31:00,
2013-02-15 07:46:00,61.9,61.0,30.02,NNW,340,3.0,5.0,96,0.00,,,0.04,19,weatherlink.com 1.10,2013-02-15 12:46:00,
2013-02-15 08:00:00,61.3,60.2,30.02,NW,315,2.0,5.0,96,0.00,,---,0.04,17.00,VWS V14.01,2013-02-15 13:00:00,
2013-02-15 08:01:00,61.3,60.0,30.02,NNW,340,3.0,5.0,96,0.00,,,0.04,40,weatherlink.com 1.10,2013-02-15 13:01:00,
2013-02-15 08:16:00,61.6,61.0,30.02,NNW,335,2.0,3.0,97,0.00,,,0.04,90,weatherlink.com 1.10,2013-02-15 13:16:00,
2013-02-15 08:30:00,62.3,61.4,30.02,NW,315,1.0,5.0,97,0.00,,---,0.04,71.00,VWS V14.01,2013-02-15 13:30:00,
2013-02-15 08:31:00,62.3,62.0,30.02,NW,316,2.0,4.0,97,0.00,,,0.04,62,weatherlink.com 1.10,2013-02-15 13:31:00,
2013-02-15 08:46:00,62.9,62.0,30.03,North,350,1.0,3.0,97,0.00,,,0.04,98,weatherlink.com 1.10,2013-02-15 13:46:00,
2013-02-15 09:00:00,63.1,61.9,30.03,North,0,1.0,4.0,96,0.00,,---,0.04,93.00,VWS V14.01,2013-02-15 14:00:00,
2013-02-15 09:01:00,63.2,62.0,30.03,North,9,1.0,4.0,96,0.00,,,0.04,134,weatherlink.com 1.10,2013-02-15 14:01:00,
2013-02-15 09:16:00,64.0,63.0,30.04,NW,318,1.0,4.0,96,0.00,,,0.04,109,weatherlink.com 1.10,2013-02-15 14:16:00,
2013-02-15 09:30:00,64.2,63.0,30.04,North,0,2.0,5.0,96,0.00,,---,0.04,108.00,VWS V14.01,2013-02-15 14:30:00,
2013-02-15 09:31:00,64.2,63.0,30.04,North,5,2.0,4.0,96,0.00,,,0.04,128,weatherlink.com 1.10,2013-02-15 14:31:00,
2013-02-15 09:47:00,63.9,62.0,30.05,NW,308,2.0,9.0,94,0.00,,,0.04,84,weatherlink.com 1.10,2013-02-15 14:47:00,
2013-02-15 10:00:00,62.7,61.0,30.05,North,0,3.0,9.0,94,0.00,,---,0.04,130.00,VWS V14.01,2013-02-15 15:00:00,
2013-02-15 10:01:00,62.6,61.0,30.05,NE,39,2.0,7.0,95,0.00,,,0.04,155,weatherlink.com 1.10,2013-02-15 15:01:00,
2013-02-15 10:16:00,62.6,61.0,30.05,West,273,1.0,5.0,95,0.00,,,0.04,123,weatherlink.com 1.10,2013-02-15 15:16:00,
2013-02-15 10:30:00,62.7,61.2,30.05,NNE,22,2.0,6.0,95,0.00,,---,0.04,129.00,VWS V14.01,2013-02-15 15:30:00,
2013-02-15 10:32:00,62.5,61.0,30.05,NW,305,2.0,4.0,94,0.00,,,0.04,162,weatherlink.com 1.10,2013-02-15 15:32:00,
2013-02-15 10:46:00,62.9,61.0,30.04,NW,321,4.0,5.0,94,0.00,,,0.04,116,weatherlink.com 1.10,2013-02-15 15:46:00,
2013-02-15 11:00:00,62.7,61.0,30.03,NW,315,2.0,5.0,94,0.00,,---,0.04,116.00,VWS V14.01,2013-02-15 16:00:00,
2013-02-15 11:01:00,62.6,61.0,30.03,WNW,291,1.0,4.0,94,0.00,,,0.04,97,weatherlink.com 1.10,2013-02-15 16:01:00,
2013-02-15 11:17:00,62.9,62.0,30.03,NNW,335,1.0,3.0,95,0.00,,,0.04,90,weatherlink.com 1.10,2013-02-15 16:17:00,
2013-02-15 11:30:00,62.6,60.8,30.05,NNW,338,1.0,4.0,94,0.00,,---,0.04,88.00,VWS V14.01,2013-02-15 16:30:00,
2013-02-15 11:32:00,62.5,61.0,30.04,SE,138,3.0,5.0,94,0.00,,,0.04,109,weatherlink.com 1.10,2013-02-15 16:32:00,
2013-02-15 11:46:00,62.5,61.0,30.04,WNW,284,2.0,5.0,95,0.00,,,0.04,114,weatherlink.com 1.10,2013-02-15 16:46:00,
2013-02-15 12:00:00,62.6,61.2,30.04,NW,315,2.0,5.0,95,0.00,,---,0.04,104.00,VWS V14.01,2013-02-15 17:00:00,
2013-02-15 12:01:00,62.6,61.0,30.04,SSE,148,1.0,4.0,95,0.00,,,0.04,98,weatherlink.com 1.10,2013-02-15 17:01:00,
2013-02-15 12:16:00,62.4,61.0,30.03,NE,37,1.0,5.0,95,0.00,,,0.04,91,weatherlink.com 1.10,2013-02-15 17:16:00,
2013-02-15 12:30:00,62.1,60.7,30.04,North,0,2.0,6.0,95,0.00,,---,0.04,88.00,VWS V14.01,2013-02-15 17:30:00,
2013-02-15 12:31:00,62.1,61.0,30.04,North,350,1.0,6.0,95,0.00,,,0.04,98,weatherlink.com 1.10,2013-02-15 17:31:00,
2013-02-15 12:46:00,62.2,61.0,30.03,North,355,1.0,4.0,95,0.00,,,0.04,58,weatherlink.com 1.10,2013-02-15 17:46:00,
2013-02-15 13:00:00,62.1,60.7,30.03,North,0,2.0,5.0,95,0.00,,---,0.04,94.00,VWS V14.01,2013-02-15 18:00:00,
2013-02-15 13:01:00,62.2,61.0,30.02,North,360,0.0,4.0,95,0.00,,,0.04,151,weatherlink.com 1.10,2013-02-15 18:01:00,
2013-02-15 13:16:00,62.0,61.0,30.02,NE,56,2.0,5.0,95,0.00,,,0.04,84,weatherlink.com 1.10,2013-02-15 18:16:00,
2013-02-15 13:30:00,62.0,60.6,30.02,North,0,2.0,5.0,95,0.00,,---,0.04,110.00,VWS V14.01,2013-02-15 18:30:00,
2013-02-15 13:31:00,62.0,61.0,30.02,NNE,24,4.0,5.0,95,0.00,,,0.04,151,weatherlink.com 1.10,2013-02-15 18:31:00,
2013-02-15 13:46:00,62.2,61.0,30.01,NNE,19,3.0,6.0,95,0.01,,,0.05,111,weatherlink.com 1.10,2013-02-15 18:46:00,
2013-02-15 14:00:00,62.8,61.7,30.00,NNW,338,2.0,7.0,96,0.01,,---,0.05,139.00,VWS V14.01,2013-02-15 19:00:00,
2013-02-15 14:01:00,63.0,62.0,29.99,NNW,347,3.0,4.0,95,0.01,,,0.05,137,weatherlink.com 1.10,2013-02-15 19:01:00,
2013-02-15 14:17:00,63.4,62.0,29.99,NNW,338,2.0,4.0,94,0.01,,,0.05,156,weatherlink.com 1.10,2013-02-15 19:17:00,
2013-02-15 14:30:00,63.2,61.2,29.98,NW,315,2.0,5.0,93,0.01,,---,0.05,159.00,VWS V14.01,2013-02-15 19:30:00,
2013-02-15 14:31:00,63.2,62.0,29.98,WNW,294,2.0,5.0,94,0.01,,,0.05,127,weatherlink.com 1.10,2013-02-15 19:31:00,
2013-02-15 14:46:00,63.4,62.0,29.99,NNW,345,1.0,4.0,94,0.00,,,0.05,102,weatherlink.com 1.10,2013-02-15 19:46:00,
2013-02-15 15:00:00,64.2,62.4,29.98,NW,315,1.0,5.0,94,0.01,,---,0.05,142.00,VWS V14.01,2013-02-15 20:00:00,
2013-02-15 15:01:00,64.4,63.0,29.98,West,277,1.0,3.0,94,0.00,,,0.05,160,weatherlink.com 1.10,2013-02-15 20:01:00,
2013-02-15 15:16:00,64.0,62.0,29.98,North,5,3.0,4.0,94,0.00,,,0.05,155,weatherlink.com 1.10,2013-02-15 20:16:00,
2013-02-15 15:30:00,64.5,62.4,29.98,NNE,22,2.0,4.0,93,0.00,,---,0.05,161.00,VWS V14.01,2013-02-15 20:30:00,
2013-02-15 15:31:00,64.5,63.0,29.96,NE,46,1.0,6.0,93,0.00,,,0.05,153,weatherlink.com 1.10,2013-02-15 20:31:00,
2013-02-15 15:46:00,64.5,62.0,29.96,NNW,330,1.0,3.0,91,0.00,,,0.05,128,weatherlink.com 1.10,2013-02-15 20:46:00,
2013-02-15 16:00:00,64.5,61.8,29.97,NNW,338,1.0,6.0,91,0.00,,---,0.05,124.00,VWS V14.01,2013-02-15 21:00:00,
2013-02-15 16:02:00,64.5,62.0,29.97,NNW,340,3.0,4.0,90,0.00,,,0.05,81,weatherlink.com 1.10,2013-02-15 21:02:00,
2013-02-15 16:30:00,64.4,61.7,29.96,NNW,338,1.0,3.0,91,0.00,,---,0.05,99.00,VWS V14.01,2013-02-15 21:30:00,
2013-02-15 16:31:00,64.5,62.0,29.97,North,350,1.0,3.0,90,0.00,,,0.05,174,weatherlink.com 1.10,2013-02-15 21:31:00,
2013-02-15 16:46:00,65.3,62.0,29.96,NNW,327,3.0,4.0,90,0.00,,,0.05,169,weatherlink.com 1.10,2013-02-15 21:46:00,
2013-02-15 17:00:00,66.7,63.4,29.97,NW,315,1.0,4.0,89,0.00,,---,0.05,184.00,VWS V14.01,2013-02-15 22:00:00,
2013-02-15 17:02:00,66.9,63.0,29.97,NNW,328,0.0,2.0,87,0.00,,,0.05,288,weatherlink.com 1.10,2013-02-15 22:02:00,
2013-02-15 17:16:00,66.4,63.0,29.97,NNW,328,0.0,2.0,87,0.00,,,0.05,84,weatherlink.com 1.10,2013-02-15 22:16:00,
2013-02-15 17:30:00,67.0,63.3,29.97,NNW,338,0.0,2.0,88,0.00,,---,0.05,136.00,VWS V14.01,2013-02-15 22:30:00,
2013-02-15 17:47:00,66.8,62.0,29.96,NNW,327,0.0,2.0,85,0.00,,,0.05,35,weatherlink.com 1.10,2013-02-15 22:47:00,
2013-02-15 18:00:00,66.0,61.7,29.97,NNW,338,0.0,2.0,86,0.00,,---,0.05,73.00,VWS V14.01,2013-02-15 23:00:00,
2013-02-15 18:02:00,65.8,62.0,29.97,NNW,327,0.0,1.0,86,0.00,,,0.05,18,weatherlink.com 1.10,2013-02-15 23:02:00,
2013-02-15 18:17:00,64.9,61.0,29.97,NNW,327,0.0,2.0,88,0.00,,,0.05,0,weatherlink.com 1.10,2013-02-15 23:17:00,
2013-02-15 18:30:00,65.0,61.4,29.96,NNW,338,0.0,2.0,88,0.00,,---,0.05,4.00,VWS V14.01,2013-02-15 23:30:00,
2013-02-15 18:32:00,64.9,61.0,29.96,NNW,327,0.0,1.0,88,0.00,,,0.05,0,weatherlink.com 1.10,2013-02-15 23:32:00,
2013-02-15 18:47:00,64.1,61.0,29.96,NNW,327,0.0,1.0,90,0.00,,,0.05,0,weatherlink.com 1.10,2013-02-15 23:47:00,
2013-02-15 19:00:00,64.1,61.4,29.97,NNW,338,0.0,1.0,91,0.00,,---,0.05,0.00,VWS V14.01,2013-02-16 00:00:00,
2013-02-15 19:02:00,64.0,61.0,29.97,NNW,327,0.0,1.0,90,0.00,,,0.05,0,weatherlink.com 1.10,2013-02-16 00:02:00,
2013-02-15 19:17:00,63.8,62.0,29.97,NNW,327,0.0,1.0,92,0.00,,,0.05,0,weatherlink.com 1.10,2013-02-16 00:17:00,
2013-02-15 19:30:00,63.4,60.7,29.97,NNW,338,0.0,1.0,91,0.00,,---,0.05,0.00,VWS V14.01,2013-02-16 00:30:00,
2013-02-15 19:32:00,63.2,61.0,29.96,NNW,327,0.0,1.0,91,0.00,,,0.05,0,weatherlink.com 1.10,2013-02-16 00:32:00,
2013-02-15 19:47:00,62.6,61.0,29.96,NNW,327,0.0,2.0,93,0.00,,,0.05,0,weatherlink.com 1.10,2013-02-16 00:47:00,
2013-02-15 20:00:00,62.4,60.3,29.96,NNW,338,1.0,2.0,93,0.00,,---,0.05,0.00,VWS V14.01,2013-02-16 01:00:00,
2013-02-15 20:02:00,62.3,60.0,29.96,NNW,327,1.0,2.0,93,0.00,,,0.05,0,weatherlink.com 1.10,2013-02-16 01:02:00,
2013-02-15 20:17:00,62.0,60.0,29.96,NNW,327,2.0,2.0,94,0.00,,,0.05,0,weatherlink.com 1.10,2013-02-16 01:17:00,
2013-02-15 20:30:00,61.7,60.0,29.95,NNW,338,1.0,2.0,94,0.00,,---,0.05,0.00,VWS V14.01,2013-02-16 01:30:00,
2013-02-15 20:32:00,61.6,60.0,29.95,NNW,327,1.0,2.0,94,0.00,,,0.05,0,weatherlink.com 1.10,2013-02-16 01:32:00,
2013-02-15 20:47:00,61.1,60.0,29.96,West,262,1.0,3.0,95,0.00,,,0.05,0,weatherlink.com 1.10,2013-02-16 01:47:00,
2013-02-15 21:00:00,61.1,59.7,29.97,WNW,292,1.0,4.0,95,0.00,,---,0.05,0.00,VWS V14.01,2013-02-16 02:00:00,
2013-02-15 21:02:00,61.0,60.0,29.97,NNW,329,1.0,3.0,95,0.00,,,0.05,0,weatherlink.com 1.10,2013-02-16 02:02:00,
2013-02-15 21:17:00,60.9,60.0,29.97,SW,216,0.0,3.0,96,0.00,,,0.05,0,weatherlink.com 1.10,2013-02-16 02:17:00,
2013-02-15 21:30:00,60.9,59.8,29.98,SW,225,1.0,3.0,96,0.00,,---,0.05,0.00,VWS V14.01,2013-02-16 02:30:00,
2013-02-15 21:32:00,61.0,60.0,29.98,South,184,1.0,3.0,96,0.00,,,0.05,0,weatherlink.com 1.10,2013-02-16 02:32:00,
2013-02-15 21:47:00,60.9,60.0,29.98,ENE,74,2.0,3.0,96,0.00,,,0.05,0,weatherlink.com 1.10,2013-02-16 02:47:00,
2013-02-15 22:00:00,60.9,59.8,29.98,ENE,68,1.0,3.0,96,0.00,,---,0.05,0.00,VWS V14.01,2013-02-16 03:00:00,
2013-02-15 22:02:00,60.9,60.0,29.98,West,280,1.0,4.0,96,0.00,,,0.05,0,weatherlink.com 1.10,2013-02-16 03:02:00,
2013-02-15 22:17:00,60.9,60.0,29.98,West,260,1.0,4.0,96,0.00,,,0.05,0,weatherlink.com 1.10,2013-02-16 03:17:00,
2013-02-15 22:30:00,61.2,60.0,29.98,West,270,1.0,4.0,96,0.00,,---,0.05,0.00,VWS V14.01,2013-02-16 03:30:00,
2013-02-15 22:32:00,61.3,60.0,29.98,West,261,0.0,3.0,96,0.00,,,0.05,0,weatherlink.com 1.10,2013-02-16 03:32:00,
2013-02-15 22:47:00,61.5,60.0,29.97,West,268,1.0,2.0,96,0.00,,,0.05,0,weatherlink.com 1.10,2013-02-16 03:47:00,
2013-02-15 23:00:00,61.3,60.2,29.97,WSW,248,1.0,4.0,96,0.00,,---,0.05,0.00,VWS V14.01,2013-02-16 04:00:00,
2013-02-15 23:02:00,61.2,60.0,29.97,WSW,258,2.0,2.0,96,0.00,,,0.05,0,weatherlink.com 1.10,2013-02-16 04:02:00,
2013-02-15 23:30:00,61.2,60.0,29.96,WNW,292,1.0,4.0,96,0.00,,---,0.05,0.00,VWS V14.01,2013-02-16 04:30:00,
2013-02-15 23:32:00,61.3,60.0,29.97,East,86,1.0,4.0,96,0.00,,,0.05,0,weatherlink.com 1.10,2013-02-16 04:32:00,
2013-02-15 23:47:00,61.2,60.0,29.96,WNW,298,1.0,4.0,96,0.00,,,0.05,0,weatherlink.com 1.10,2013-02-16 04:47:00,